Time;durP1;ratioP1;P1;durP2;ratioP2;P2;SDS_P1;SDS_P2;PMS_P1;PMS_P2;Temp;Humidity;BMP_temperature;BMP_pressure;BME280_temperature;BME280_humidity;BME280_pressure;Samples;Min_cycle;Max_cycle;Signal;HPM_P1;HPM_P2
2022/05/26 00:01:16;;;;;;;18.95;5.60;;;15.30;82.00;;;;;;5008239;28;20061;-71
2022/05/26 00:03:43;;;;;;;22.73;5.68;;;15.40;82.10;;;;;;5000137;28;20037;-72
2022/05/26 00:06:12;;;;;;;19.25;5.93;;;15.40;81.90;;;;;;5001483;28;20041;-73
2022/05/26 00:08:39;;;;;;;27.17;6.35;;;15.30;82.10;;;;;;5008112;28;20046;-73
2022/05/26 00:11:11;;;;;;;20.70;5.03;;;15.20;82.30;;;;;;5009303;28;20052;-73
2022/05/26 00:13:38;;;;;;;20.27;6.35;;;15.30;82.20;;;;;;5004160;28;20038;-74
2022/05/26 00:16:04;;;;;;;26.25;5.93;;;15.30;82.10;;;;;;5008401;28;20045;-75
2022/05/26 00:18:30;;;;;;;22.58;5.22;;;15.30;82.10;;;;;;5009502;28;20438;-73
2022/05/26 00:20:56;;;;;;;22.85;6.38;;;15.30;82.10;;;;;;5014821;28;20582;-73
2022/05/26 00:23:21;;;;;;;18.75;5.03;;;15.20;82.30;;;;;;5006603;28;20038;-74
2022/05/26 00:25:47;;;;;;;22.35;6.25;;;15.20;82.30;;;;;;5019155;28;20033;-73
2022/05/26 00:28:13;;;;;;;20.25;5.97;;;15.20;82.30;;;;;;5008732;28;20462;-73
2022/05/26 00:30:38;;;;;;;21.80;5.85;;;15.20;82.30;;;;;;5010593;28;20454;-72
2022/05/26 00:33:08;;;;;;;20.25;5.65;;;15.20;82.30;;;;;;5010327;28;20096;-73
2022/05/26 00:35:35;;;;;;;27.67;6.40;;;15.10;82.40;;;;;;5004490;28;20342;-73
2022/05/26 00:38:09;;;;;;;23.00;5.80;;;15.10;82.50;;;;;;5003605;28;20045;-72
2022/05/26 00:40:35;;;;;;;19.98;5.20;;;15.10;82.40;;;;;;5004257;28;20412;-72
2022/05/26 00:43:02;;;;;;;25.92;5.82;;;15.10;82.60;;;;;;5008051;28;20041;-73
2022/05/26 00:45:41;;;;;;;20.42;6.05;;;15.10;82.60;;;;;;5005049;28;20112;-72
2022/05/26 00:48:11;;;;;;;20.65;5.35;;;15.10;82.60;;;;;;5012992;28;20060;-73
2022/05/26 00:50:46;;;;;;;20.45;6.20;;;15.10;82.70;;;;;;5004419;28;20041;-72
2022/05/26 00:53:31;;;;;;;23.15;6.63;;;15.10;82.70;;;;;;5012323;28;20033;-72
2022/05/26 00:55:58;;;;;;;;;;;15.10;82.60;;;;;;5005513;28;20050;-74
2022/05/26 00:58:28;;;;;;;19.85;5.45;;;15.10;82.60;;;;;;5005134;28;19923;-72
2022/05/26 01:00:57;;;;;;;24.10;6.15;;;15.10;82.80;;;;;;5013521;28;20033;-72
2022/05/26 01:03:32;;;;;;;19.77;5.00;;;15.10;82.70;;;;;;5013930;28;20041;-72
2022/05/26 01:06:15;;;;;;;22.60;6.47;;;15.00;82.70;;;;;;5006129;28;20117;-73
2022/05/26 01:08:59;;;;;;;22.13;6.60;;;15.10;82.70;;;;;;5002319;28;20079;-72
2022/05/26 01:11:29;;;;;;;17.67;5.20;;;15.10;82.70;;;;;;5006984;28;20042;-73
2022/05/26 01:13:59;;;;;;;24.58;5.90;;;15.00;82.80;;;;;;5016961;28;20763;-72
2022/05/26 01:16:42;;;;;;;23.70;5.80;;;15.00;82.50;;;;;;5007925;28;20754;-72
2022/05/26 01:19:27;;;;;;;20.35;5.97;;;15.00;82.80;;;;;;5004855;28;20038;-72
2022/05/26 01:22:41;;;;;;;20.90;6.20;;;14.90;83.10;;;;;;5007091;28;20394;-73
2022/05/26 01:25:26;;;;;;;18.15;5.88;;;14.90;83.20;;;;;;4974763;28;20481;-72
2022/05/26 01:28:24;;;;;;;21.40;6.03;;;14.80;83.20;;;;;;5009030;28;20038;-73
2022/05/26 01:30:59;;;;;;;25.65;6.47;;;14.80;83.20;;;;;;5006480;28;20065;-72
2022/05/26 01:33:36;;;;;;;22.58;5.93;;;14.80;83.20;;;;;;5011274;28;20054;-73
2022/05/26 01:36:27;;;;;;;22.48;6.43;;;14.80;83.40;;;;;;5007549;28;20052;-73
2022/05/26 01:39:18;;;;;;;29.42;7.57;;;14.80;83.40;;;;;;5003743;28;20037;-72
2022/05/26 01:42:25;;;;;;;25.17;7.90;;;14.70;83.50;;;;;;5004075;28;20072;-72
2022/05/26 01:45:06;;;;;;;24.77;7.43;;;14.70;83.70;;;;;;5004973;28;20041;-72
2022/05/26 01:47:46;;;;;;;21.85;6.38;;;14.60;83.90;;;;;;5000839;28;20253;-73
2022/05/26 01:50:28;;;;;;;18.70;6.57;;;14.70;83.90;;;;;;5006283;28;20409;-72
2022/05/26 01:53:17;;;;;;;23.13;6.07;;;14.60;84.20;;;;;;5010178;28;20124;-73
2022/05/26 01:55:50;;;;;;;24.85;7.20;;;14.60;84.40;;;;;;5009790;28;20366;-72
2022/05/26 01:58:19;;;;;;;32.03;7.68;;;14.60;84.50;;;;;;5007497;28;20143;-73
2022/05/26 02:00:45;;;;;;;27.08;7.75;;;14.60;84.60;;;;;;5015437;28;20208;-72
2022/05/26 02:03:21;;;;;;;26.95;6.90;;;14.60;84.60;;;;;;5007649;28;20036;-74
2022/05/26 02:06:20;;;;;;;29.67;7.75;;;14.50;84.60;;;;;;5002633;28;20434;-72
2022/05/26 02:08:54;;;;;;;23.23;7.03;;;14.50;84.60;;;;;;5005640;28;20069;-72
2022/05/26 02:11:21;;;;;;;26.75;7.20;;;14.50;84.70;;;;;;5008281;28;20121;-73
2022/05/26 02:13:58;;;;;;;23.90;6.60;;;14.50;84.60;;;;;;5007782;28;20042;-73
2022/05/26 02:16:38;;;;;;;26.05;7.47;;;14.60;84.40;;;;;;5010228;28;20129;-73
2022/05/26 02:19:28;;;;;;;29.88;7.03;;;14.60;84.50;;;;;;5000116;28;20053;-73
2022/05/26 02:22:28;;;;;;;28.80;7.43;;;14.60;84.60;;;;;;5004852;28;20038;-72
2022/05/26 02:25:14;;;;;;;27.23;6.78;;;14.60;84.30;;;;;;5005290;28;20046;-72
2022/05/26 02:27:40;;;;;;;32.80;8.18;;;14.50;84.50;;;;;;4993600;28;20054;-73
2022/05/26 02:30:07;;;;;;;28.50;7.88;;;14.50;84.90;;;;;;4997253;28;20034;-72
2022/05/26 02:32:43;;;;;;;26.77;7.93;;;14.50;84.80;;;;;;4986013;28;20054;-72
2022/05/26 02:35:26;;;;;;;31.75;7.38;;;14.40;84.70;;;;;;5001046;28;20033;-72
2022/05/26 02:38:06;;;;;;;21.83;7.32;;;14.40;84.90;;;;;;5000493;28;20580;-73
2022/05/26 02:40:32;;;;;;;28.30;8.23;;;14.40;84.90;;;;;;4995495;28;20037;-74
2022/05/26 02:43:19;;;;;;;25.02;7.88;;;14.40;84.90;;;;;;5004581;28;20097;-72
2022/05/26 02:45:51;;;;;;;26.02;7.80;;;14.40;84.80;;;;;;4998985;28;20044;-72
2022/05/26 02:48:29;;;;;;;30.35;8.07;;;14.30;84.90;;;;;;5004669;28;20122;-72
2022/05/26 02:51:24;;;;;;;34.38;8.52;;;14.30;85.20;;;;;;5006215;28;20488;-72
2022/05/26 02:53:49;;;;;;;;;;;14.20;85.40;;;;;;5001368;28;20045;-73
2022/05/26 02:56:21;;;;;;;29.90;8.32;;;14.20;85.50;;;;;;5000900;28;19913;-72
2022/05/26 02:59:14;;;;;;;25.25;7.85;;;14.20;85.40;;;;;;5005158;28;20066;-73
2022/05/26 03:01:56;;;;;;;26.00;7.75;;;14.20;85.20;;;;;;5007059;28;20034;-73
2022/05/26 03:04:31;;;;;;;25.02;7.57;;;14.10;85.40;;;;;;5009831;28;20042;-72
2022/05/26 03:07:07;;;;;;;32.33;8.57;;;14.30;85.30;;;;;;5004093;28;20220;-73
2022/05/26 03:09:35;;;;;;;23.88;8.07;;;14.20;85.30;;;;;;5007708;28;20085;-73
2022/05/26 03:12:01;;;;;;;29.27;7.68;;;14.10;85.50;;;;;;4999688;28;20966;-73
2022/05/26 03:14:27;;;;;;;26.20;7.78;;;14.20;85.40;;;;;;5017926;28;20037;-73
2022/05/26 03:16:53;;;;;;;28.80;7.93;;;14.10;85.40;;;;;;5004030;28;20045;-71
2022/05/26 03:19:19;;;;;;;23.10;8.00;;;14.10;85.40;;;;;;5009569;28;20038;-71
2022/05/26 03:21:45;;;;;;;26.20;8.15;;;14.10;85.50;;;;;;5005457;28;20065;-72
2022/05/26 03:24:11;;;;;;;25.23;6.95;;;14.10;85.60;;;;;;5016208;28;20053;-73
2022/05/26 03:26:37;;;;;;;27.38;8.23;;;14.10;85.80;;;;;;5009250;28;20161;-73
2022/05/26 03:29:04;;;;;;;31.30;8.82;;;14.00;85.80;;;;;;4996237;28;20145;-74
2022/05/26 03:31:31;;;;;;;28.05;8.32;;;14.10;85.80;;;;;;5001778;28;20038;-72
2022/05/26 03:42:12;;;;;;;26.58;8.30;;;13.80;86.20;;;;;;4997005;28;20099;-73
2022/05/26 03:44:39;;;;;;;31.85;8.63;;;13.70;86.50;;;;;;4995167;28;20046;-72
2022/05/26 03:47:05;;;;;;;30.85;7.97;;;13.70;86.60;;;;;;4997842;28;20053;-72
2022/05/26 03:49:31;;;;;;;22.73;7.28;;;13.70;86.40;;;;;;5009519;28;20029;-73
2022/05/26 03:51:57;;;;;;;28.60;8.23;;;13.70;86.50;;;;;;5014322;28;20483;-73
2022/05/26 03:54:23;;;;;;;24.65;7.47;;;13.70;86.50;;;;;;4996420;28;20069;-71
2022/05/26 03:56:49;;;;;;;22.08;7.85;;;13.70;86.40;;;;;;5010157;28;20132;-72
2022/05/26 03:59:15;;;;;;;33.35;8.00;;;13.70;86.40;;;;;;5007147;28;20531;-71
2022/05/26 04:01:40;;;;;;;25.52;8.85;;;13.70;86.30;;;;;;5029395;28;20026;-72
2022/05/26 04:04:07;;;;;;;22.20;7.30;;;13.60;86.50;;;;;;5006757;28;20108;-73
2022/05/26 04:06:32;;;;;;;29.73;8.75;;;13.70;86.50;;;;;;4996890;28;20038;-72
2022/05/26 04:08:59;;;;;;;28.50;8.30;;;13.70;86.40;;;;;;5003802;28;20151;-72
2022/05/26 04:11:25;;;;;;;23.67;7.57;;;13.70;86.30;;;;;;5008869;28;20050;-72
2022/05/26 04:13:54;;;;;;;24.90;7.35;;;13.70;86.20;;;;;;5004050;28;20044;-73
2022/05/26 04:16:21;;;;;;;29.65;6.88;;;13.70;86.40;;;;;;5005471;28;20069;-72
2022/05/26 04:18:46;;;;;;;27.85;8.02;;;13.70;86.10;;;;;;5002068;28;20305;-72
2022/05/26 04:21:13;;;;;;;30.73;7.40;;;13.70;86.10;;;;;;5002981;28;20453;-72
2022/05/26 04:23:39;;;;;;;20.42;6.90;;;13.70;85.90;;;;;;5004277;28;20540;-72
2022/05/26 04:26:06;;;;;;;25.30;6.45;;;13.70;85.80;;;;;;5005799;28;20044;-72
2022/05/26 04:28:32;;;;;;;25.13;6.40;;;13.70;85.80;;;;;;5008564;28;20063;-72
2022/05/26 04:30:58;;;;;;;24.30;6.93;;;13.80;85.70;;;;;;5011689;28;20485;-72
2022/05/26 04:33:24;;;;;;;23.70;7.35;;;13.80;85.60;;;;;;5011776;28;20160;-72
2022/05/26 04:35:50;;;;;;;24.90;6.82;;;13.80;85.40;;;;;;5006739;28;20060;-72
2022/05/26 04:38:16;;;;;;;22.80;6.63;;;13.90;85.40;;;;;;5004740;28;20541;-73
2022/05/26 04:40:43;;;;;;;22.27;6.75;;;13.90;85.40;;;;;;5003251;28;20033;-72
2022/05/26 04:43:10;;;;;;;25.90;7.63;;;13.90;85.10;;;;;;5003020;28;20370;-72
2022/05/26 04:45:36;;;;;;;26.35;7.45;;;14.00;85.10;;;;;;5010686;28;20662;-74
2022/05/26 04:48:02;;;;;;;30.55;8.13;;;14.00;84.90;;;;;;5008340;28;20136;-73
2022/05/26 04:50:28;;;;;;;25.17;7.45;;;14.10;84.80;;;;;;5006553;28;20461;-72
2022/05/26 04:52:53;;;;;;;26.77;7.13;;;14.00;85.00;;;;;;5011344;28;20044;-72
2022/05/26 04:55:19;;;;;;;26.83;7.13;;;14.10;84.80;;;;;;5001833;28;20365;-73
2022/05/26 04:57:45;;;;;;;29.90;7.80;;;14.20;84.60;;;;;;5017137;28;20037;-72
2022/05/26 05:00:14;;;;;;;24.92;7.30;;;14.30;84.50;;;;;;5015815;28;20080;-73
2022/05/26 05:02:40;;;;;;;26.08;7.88;;;14.30;84.20;;;;;;5011641;28;20576;-72
2022/05/26 05:05:06;;;;;;;30.48;7.90;;;14.30;84.10;;;;;;5001581;28;20121;-73
2022/05/26 05:07:32;;;;;;;26.83;7.95;;;14.30;84.10;;;;;;5013862;28;20038;-72
2022/05/26 05:09:58;;;;;;;22.00;6.78;;;14.30;84.20;;;;;;5016012;28;20057;-73
2022/05/26 05:12:24;;;;;;;24.70;7.35;;;14.40;84.00;;;;;;5015856;28;20056;-73
2022/05/26 05:14:52;;;;;;;23.65;6.95;;;14.40;83.70;;;;;;5008102;28;20029;-73
2022/05/26 05:17:19;;;;;;;24.83;7.50;;;14.50;83.90;;;;;;5016613;28;20049;-72
2022/05/26 05:19:46;;;;;;;24.52;7.05;;;14.70;83.80;;;;;;5016416;28;20105;-73
2022/05/26 05:22:21;;;;;;;22.27;5.88;;;15.60;81.30;;;;;;5007472;28;20497;-73
2022/05/26 05:24:52;;;;;;;23.75;5.88;;;16.80;76.80;;;;;;5014581;28;20049;-72
2022/05/26 05:27:38;;;;;;;22.27;5.63;;;17.70;72.70;;;;;;5003092;28;20128;-72
2022/05/26 05:30:17;;;;;;;19.25;5.75;;;18.60;70.70;;;;;;5004404;28;20096;-73
2022/05/26 05:32:53;;;;;;;19.35;6.30;;;19.50;67.40;;;;;;5012440;28;20045;-72
2022/05/26 05:35:24;;;;;;;20.90;5.00;;;20.00;63.50;;;;;;5008340;28;20038;-72
2022/05/26 05:37:50;;;;;;;18.88;5.22;;;20.20;62.90;;;;;;5019547;28;20048;-74
2022/05/26 05:40:16;;;;;;;22.90;5.63;;;20.00;62.90;;;;;;5011226;28;20030;-73
2022/05/26 05:42:41;;;;;;;21.02;5.78;;;20.00;63.00;;;;;;5006589;28;20041;-73
2022/05/26 05:45:08;;;;;;;22.05;5.65;;;20.10;63.60;;;;;;5005493;28;20133;-73
2022/05/26 05:47:33;;;;;;;23.30;6.25;;;19.80;63.90;;;;;;5004552;28;20061;-73
2022/05/26 05:49:59;;;;;;;21.98;6.53;;;19.80;64.50;;;;;;5010265;28;20404;-72
2022/05/26 05:52:25;;;;;;;25.35;5.78;;;19.00;66.00;;;;;;5007467;28;20103;-73
2022/05/26 05:54:51;;;;;;;18.17;5.03;;;18.80;66.90;;;;;;5012138;28;20263;-73
2022/05/26 05:57:17;;;;;;;21.70;6.13;;;18.30;68.50;;;;;;5007606;28;20041;-73
2022/05/26 05:59:43;;;;;;;27.40;6.80;;;17.80;70.60;;;;;;5006342;28;20076;-73
2022/05/26 06:02:09;;;;;;;19.23;6.20;;;17.30;72.30;;;;;;5004552;28;20034;-72
2022/05/26 06:04:44;;;;;;;20.80;6.68;;;17.10;73.30;;;;;;4996649;28;20027;-73
2022/05/26 06:07:18;;;;;;;19.88;6.80;;;16.90;73.50;;;;;;5002409;28;20034;-72
2022/05/26 06:09:45;;;;;;;22.90;6.68;;;16.70;74.90;;;;;;4994634;28;20035;-73
2022/05/26 06:12:10;;;;;;;24.20;6.65;;;16.60;75.70;;;;;;5004139;28;20033;-72
2022/05/26 06:14:37;;;;;;;18.20;6.28;;;16.70;75.20;;;;;;5008773;28;20447;-73
2022/05/26 06:17:03;;;;;;;20.23;6.88;;;16.80;75.30;;;;;;4999884;28;20060;-72
2022/05/26 06:19:28;;;;;;;24.48;8.05;;;16.90;74.80;;;;;;5005185;28;20354;-72
2022/05/26 06:21:54;;;;;;;20.25;6.97;;;16.70;75.50;;;;;;5008257;28;20044;-72
2022/05/26 06:24:23;;;;;;;26.95;7.85;;;16.90;75.10;;;;;;5007580;28;22012;-73
2022/05/26 06:26:49;;;;;;;20.15;7.40;;;16.80;75.10;;;;;;5009473;28;20026;-72
2022/05/26 06:37:28;;;;;;;22.75;9.75;;;17.00;75.20;;;;;;5012038;28;20080;-74
2022/05/26 06:39:55;;;;;;;23.52;8.25;;;17.00;74.60;;;;;;5004185;28;20512;-73
2022/05/26 06:42:24;;;;;;;26.80;9.50;;;17.00;75.20;;;;;;5013490;28;20501;-74
2022/05/26 06:44:51;;;;;;;20.45;8.63;;;17.10;74.10;;;;;;5013619;28;20041;-73
2022/05/26 06:47:21;;;;;;;23.15;9.02;;;17.30;74.40;;;;;;5005614;28;20457;-73
2022/05/26 06:49:47;;;;;;;21.00;7.45;;;17.30;74.10;;;;;;5007835;28;20045;-74
2022/05/26 06:52:15;;;;;;;26.15;11.45;;;17.40;73.60;;;;;;5010780;28;20248;-72
2022/05/26 06:54:43;;;;;;;27.38;10.95;;;17.40;73.30;;;;;;5013910;28;20462;-74
2022/05/26 06:57:10;;;;;;;19.73;10.10;;;17.40;74.20;;;;;;5015139;28;20142;-71
2022/05/26 06:59:36;;;;;;;23.23;11.90;;;17.70;72.80;;;;;;4992699;28;20029;-73
2022/05/26 07:02:07;;;;;;;21.17;12.20;;;17.60;73.40;;;;;;5002638;28;20041;-74
2022/05/26 07:04:33;;;;;;;25.27;13.15;;;17.80;72.60;;;;;;4997312;28;20109;-73
2022/05/26 07:06:59;;;;;;;20.55;11.52;;;17.70;72.10;;;;;;4997246;28;20078;-75
2022/05/26 07:09:26;;;;;;;23.65;10.93;;;17.60;72.80;;;;;;4986482;28;20042;-73
2022/05/26 07:11:52;;;;;;;18.60;10.30;;;18.00;72.50;;;;;;4995527;28;20038;-72
2022/05/26 07:14:18;;;;;;;19.27;10.13;;;18.30;70.80;;;;;;4995339;28;20048;-74
2022/05/26 07:16:45;;;;;;;18.83;10.32;;;18.60;70.10;;;;;;4989523;28;20514;-72
2022/05/26 07:19:15;;;;;;;20.52;8.88;;;18.60;68.30;;;;;;4990602;28;20236;-73
2022/05/26 07:21:43;;;;;;;20.52;8.57;;;18.60;68.30;;;;;;4987255;28;20038;-73
2022/05/26 07:24:10;;;;;;;20.42;7.22;;;18.40;68.50;;;;;;4995150;28;20049;-73
2022/05/26 07:26:36;;;;;;;19.05;6.78;;;18.10;70.60;;;;;;4985237;28;20631;-73
2022/05/26 07:29:02;;;;;;;20.48;5.60;;;18.20;71.00;;;;;;4998370;28;20038;-75
2022/05/26 07:31:28;;;;;;;20.30;6.47;;;18.10;70.20;;;;;;4987299;28;20468;-75
2022/05/26 07:33:54;;;;;;;15.65;5.57;;;18.20;70.90;;;;;;4993596;28;20391;-72
2022/05/26 07:41:57;;;;;;;15.02;5.40;;;19.20;66.10;;;;;;4996424;28;20068;-73
2022/05/26 07:44:23;;;;;;;18.92;4.90;;;19.30;66.40;;;;;;4994390;28;21259;-74
2022/05/26 07:46:49;;;;;;;18.27;5.32;;;19.50;65.50;;;;;;5014050;28;20053;-73
2022/05/26 07:49:14;;;;;;;16.65;5.40;;;19.50;65.40;;;;;;4990033;28;20045;-73
2022/05/26 07:51:40;;;;;;;15.88;5.13;;;19.50;64.90;;;;;;4993989;28;20117;-74
2022/05/26 07:54:06;;;;;;;16.25;4.97;;;19.70;64.30;;;;;;4992802;28;20038;-73
2022/05/26 07:56:36;;;;;;;15.82;4.78;;;19.80;64.80;;;;;;4990399;28;20034;-74
2022/05/26 07:59:04;;;;;;;18.92;5.53;;;19.60;64.90;;;;;;4991816;28;20061;-75
2022/05/26 08:01:30;;;;;;;15.60;4.88;;;19.40;64.30;;;;;;4994664;28;20049;-75
2022/05/26 08:03:56;;;;;;;15.25;4.75;;;19.50;65.20;;;;;;4993680;28;20042;-72
2022/05/26 08:06:22;;;;;;;12.38;4.80;;;19.60;64.40;;;;;;5000803;28;20040;-73
2022/05/26 08:08:48;;;;;;;15.50;4.55;;;19.60;63.90;;;;;;4994329;28;20128;-73
2022/05/26 08:11:14;;;;;;;16.50;5.55;;;19.30;65.70;;;;;;4991855;28;20041;-73
2022/05/26 08:13:39;;;;;;;17.27;5.40;;;19.20;65.80;;;;;;4985718;28;20034;-73
2022/05/26 08:16:05;;;;;;;11.15;4.53;;;19.20;66.10;;;;;;4989911;28;20034;-75
2022/05/26 08:18:32;;;;;;;15.27;5.40;;;19.10;65.50;;;;;;5022485;28;20046;-74
2022/05/26 08:21:13;;;;;;;16.58;5.38;;;18.60;66.90;;;;;;4986607;28;20106;-72
2022/05/26 08:23:39;;;;;;;17.38;5.13;;;18.50;67.50;;;;;;4985953;28;20049;-73
2022/05/26 08:26:06;;;;;;;14.57;5.07;;;18.60;66.60;;;;;;4991679;28;20037;-72
2022/05/26 08:28:32;;;;;;;12.93;5.25;;;18.30;67.40;;;;;;4996626;28;20437;-74
2022/05/26 08:30:59;;;;;;;12.02;4.88;;;18.20;67.60;;;;;;4996429;28;20461;-71
2022/05/26 08:33:26;;;;;;;12.90;5.15;;;18.30;67.30;;;;;;4999981;28;20037;-73
2022/05/26 08:36:00;;;;;;;17.60;6.25;;;18.30;67.50;;;;;;5005304;28;20098;-74
2022/05/26 08:38:25;;;;;;;11.18;5.30;;;18.40;67.50;;;;;;4996119;28;21419;-73
2022/05/26 08:40:52;;;;;;;14.50;5.30;;;18.60;67.10;;;;;;5003134;28;20066;-74
2022/05/26 08:43:23;;;;;;;15.32;4.93;;;18.60;66.90;;;;;;5003562;28;20042;-74
2022/05/26 08:45:51;;;;;;;14.85;5.32;;;18.80;66.30;;;;;;5008385;28;20561;-71
2022/05/26 08:48:39;;;;;;;14.15;5.05;;;19.00;65.50;;;;;;4997099;28;20081;-68
2022/05/26 08:51:07;;;;;;;12.27;4.53;;;18.90;65.70;;;;;;5022865;28;20049;-70
2022/05/26 08:53:36;;;;;;;11.13;4.40;;;19.00;65.50;;;;;;4993671;28;20506;-71
2022/05/26 08:56:03;;;;;;;15.88;5.10;;;19.00;65.80;;;;;;4995925;28;20022;-73
2022/05/26 08:58:38;;;;;;;15.10;5.65;;;18.80;66.10;;;;;;5004204;28;20804;-71
2022/05/26 09:01:08;;;;;;;14.70;4.63;;;18.80;66.50;;;;;;5001815;28;20033;-72
2022/05/26 09:03:35;;;;;;;10.73;4.10;;;19.10;66.20;;;;;;5000273;28;20784;-70
2022/05/26 09:06:00;;;;;;;14.07;4.47;;;19.50;64.60;;;;;;4996247;28;20590;-70
2022/05/26 09:13:59;;;;;;;11.88;4.53;;;20.50;61.90;;;;;;4998986;28;20073;-72
2022/05/26 09:16:28;;;;;;;12.55;4.43;;;19.70;63.10;;;;;;5003026;28;20465;-73
2022/05/26 09:19:10;;;;;;;10.90;4.00;;;19.70;63.80;;;;;;5000152;28;20052;-71
2022/05/26 09:21:37;;;;;;;12.48;4.10;;;19.60;63.90;;;;;;5000941;28;20041;-69
2022/05/26 09:24:31;;;;;;;11.00;3.85;;;20.00;63.00;;;;;;4999148;28;20046;-72
2022/05/26 09:27:00;;;;;;;12.00;3.30;;;20.60;60.60;;;;;;4990660;28;20132;-73
2022/05/26 09:29:28;;;;;;;11.35;3.42;;;20.80;59.70;;;;;;4999815;28;20121;-69
2022/05/26 09:31:58;;;;;;;10.30;3.45;;;21.40;58.20;;;;;;4998745;28;20030;-70
2022/05/26 09:34:33;;;;;;;10.32;3.58;;;21.90;56.40;;;;;;4994797;28;20040;-73
2022/05/26 09:37:04;;;;;;;11.85;3.83;;;22.10;55.00;;;;;;5006415;28;20369;-70
2022/05/26 09:39:39;;;;;;;9.95;2.92;;;22.00;55.60;;;;;;5008848;28;20567;-72
2022/05/26 09:42:16;;;;;;;;;;;22.00;54.90;;;;;;5030285;28;20089;-71
2022/05/26 09:45:10;;;;;;;12.02;3.13;;;21.70;56.60;;;;;;5004777;28;20440;-72
2022/05/26 09:47:59;;;;;;;11.20;2.85;;;21.70;54.50;;;;;;5007792;28;20041;-71
2022/05/26 09:50:35;;;;;;;10.32;3.00;;;21.90;54.80;;;;;;5002272;28;20045;-73
2022/05/26 09:53:06;;;;;;;10.85;2.60;;;21.80;53.50;;;;;;5005947;28;20587;-72
2022/05/26 09:55:54;;;;;;;8.50;2.47;;;21.80;53.10;;;;;;5009936;28;20041;-73
2022/05/26 09:58:34;;;;;;;8.00;2.83;;;21.70;53.60;;;;;;5012341;28;20092;-70
2022/05/26 10:01:05;;;;;;;9.10;2.55;;;21.50;54.50;;;;;;5006068;28;20049;-71
2022/05/26 10:03:52;;;;;;;7.55;2.47;;;21.60;55.00;;;;;;5004265;28;20037;-70
2022/05/26 10:07:23;;;;;;;12.43;2.70;;;21.90;52.60;;;;;;5003268;28;20041;-71
2022/05/26 10:10:04;;;;;;;9.23;2.53;;;21.40;54.40;;;;;;4941140;28;20685;-70
2022/05/26 10:12:35;;;;;;;8.75;2.75;;;21.10;55.80;;;;;;4949403;28;20523;-72
2022/05/26 10:15:31;;;;;;;9.40;2.33;;;21.00;54.70;;;;;;4980546;28;20459;-71
2022/05/26 10:18:26;;;;;;;10.43;2.28;;;20.80;54.80;;;;;;5007282;28;20049;-74
2022/05/26 10:20:58;;;;;;;6.20;2.08;;;21.10;54.60;;;;;;4994647;28;20080;-72
2022/05/26 10:23:39;;;;;;;10.40;2.63;;;21.30;53.20;;;;;;4996062;28;20073;-71
2022/05/26 10:26:16;;;;;;;8.40;2.28;;;21.40;53.40;;;;;;5001506;28;20113;-71
2022/05/26 10:28:58;;;;;;;11.65;2.80;;;21.80;53.50;;;;;;4998460;28;20052;-71
2022/05/26 10:31:24;;;;;;;6.57;1.95;;;21.70;52.60;;;;;;4990705;28;20434;-72
2022/05/26 10:34:15;;;;;;;9.05;2.00;;;21.80;53.10;;;;;;4993341;28;20080;-71
2022/05/26 10:37:00;;;;;;;9.48;2.33;;;21.50;52.60;;;;;;5010335;28;20042;-71
2022/05/26 10:39:44;;;;;;;;;;;21.80;53.50;;;;;;4997058;28;20524;-70
2022/05/26 10:42:43;;;;;;;6.53;1.70;;;21.80;53.10;;;;;;5005543;28;19955;-72
2022/05/26 10:45:15;;;;;;;9.60;2.25;;;22.20;51.80;;;;;;5001663;28;20057;-72
2022/05/26 10:48:04;;;;;;;8.02;1.83;;;22.40;50.50;;;;;;4997325;28;20505;-74
2022/05/26 10:50:45;;;;;;;8.43;2.38;;;22.70;50.30;;;;;;5023682;28;20493;-72
2022/05/26 10:53:41;;;;;;;10.25;2.35;;;22.80;49.40;;;;;;4989310;28;20427;-70
2022/05/26 10:56:22;;;;;;;7.78;2.08;;;22.70;49.90;;;;;;4993675;28;20042;-71
2022/05/26 10:58:51;;;;;;;9.18;2.25;;;22.50;49.70;;;;;;5008895;28;20052;-72
2022/05/26 11:01:40;;;;;;;8.30;1.90;;;22.60;50.10;;;;;;5005601;28;20469;-71
2022/05/26 11:04:44;;;;;;;6.97;1.83;;;23.20;51.60;;;;;;5011749;28;20042;-74
2022/05/26 11:07:26;;;;;;;7.90;2.40;;;23.20;49.20;;;;;;5002021;28;20508;-72
2022/05/26 11:09:56;;;;;;;9.38;2.00;;;23.70;47.20;;;;;;5041297;28;20044;-71
2022/05/26 11:12:43;;;;;;;7.65;2.17;;;23.60;49.10;;;;;;5008599;28;21341;-72
2022/05/26 11:18:21;;;;;;;10.13;2.53;;;23.00;49.30;;;;;;4996819;28;20481;-71
2022/05/26 11:20:57;;;;;;;12.07;2.40;;;22.40;50.90;;;;;;4995153;28;20049;-71
2022/05/26 11:23:27;;;;;;;12.77;2.55;;;22.20;51.20;;;;;;4990785;28;20076;-70
2022/05/26 11:25:56;;;;;;;10.90;2.20;;;22.30;51.00;;;;;;4999394;28;20104;-70
2022/05/26 11:28:39;;;;;;;9.82;2.17;;;22.60;50.20;;;;;;4989478;28;20140;-72
2022/05/26 11:37:20;;;;;;;6.45;1.85;;;23.10;49.20;;;;;;5004508;28;20044;-71
2022/05/26 11:39:50;;;;;;;9.65;2.00;;;23.20;48.80;;;;;;5025504;28;20046;-70
2022/05/26 11:42:32;;;;;;;6.00;1.92;;;23.40;48.60;;;;;;4996851;28;20475;-71
2022/05/26 11:45:18;;;;;;;7.88;2.00;;;23.30;48.30;;;;;;5002178;28;20742;-70
2022/05/26 11:47:55;;;;;;;7.75;2.30;;;23.30;49.00;;;;;;4995147;28;20336;-70
2022/05/26 11:50:29;;;;;;;6.82;1.90;;;23.00;49.90;;;;;;4989721;28;20115;-70
2022/05/26 11:52:55;;;;;;;8.10;2.15;;;23.50;49.30;;;;;;4986797;28;20030;-72
2022/05/26 11:55:48;;;;;;;9.88;2.55;;;23.70;48.80;;;;;;4986151;28;20052;-69
2022/05/26 11:58:37;;;;;;;9.50;2.00;;;23.30;49.70;;;;;;4998098;28;20115;-72
2022/05/26 12:01:25;;;;;;;9.65;2.20;;;23.30;49.90;;;;;;4990064;28;20493;-70
2022/05/26 12:03:53;;;;;;;7.40;2.13;;;23.40;49.90;;;;;;4995990;28;20056;-71
2022/05/26 12:06:36;;;;;;;7.55;2.38;;;22.90;49.60;;;;;;4997097;28;20125;-70
2022/05/26 12:09:33;;;;;;;8.55;2.05;;;22.30;52.10;;;;;;5020773;28;20058;-70
2022/05/26 12:12:07;;;;;;;7.80;2.22;;;22.90;51.10;;;;;;4993277;28;20068;-70
2022/05/26 12:15:07;;;;;;;7.70;2.10;;;23.10;49.50;;;;;;4987677;28;20037;-71
2022/05/26 12:17:49;;;;;;;7.57;2.22;;;23.00;49.50;;;;;;4996411;28;20120;-73
2022/05/26 12:20:14;;;;;;;7.20;1.95;;;23.00;50.70;;;;;;4989600;28;20050;-69
2022/05/26 12:23:03;;;;;;;8.38;2.20;;;22.60;51.80;;;;;;4991176;28;20041;-70
2022/05/26 12:25:34;;;;;;;5.82;1.70;;;22.70;51.80;;;;;;5018600;28;20386;-74
2022/05/26 12:28:06;;;;;;;9.00;1.88;;;22.70;51.50;;;;;;4987104;28;20125;-71
2022/05/26 12:30:34;;;;;;;9.18;2.17;;;23.10;50.40;;;;;;4990316;28;20072;-75
2022/05/26 12:33:10;;;;;;;7.93;1.77;;;23.20;49.80;;;;;;5000406;28;20038;-71
2022/05/26 12:35:51;;;;;;;12.77;1.80;;;23.20;49.80;;;;;;4998970;28;20417;-70
2022/05/26 12:38:39;;;;;;;6.03;1.98;;;23.50;49.40;;;;;;4995938;28;20163;-74
2022/05/26 12:41:24;;;;;;;8.27;1.98;;;23.80;49.20;;;;;;4985079;28;20079;-71
2022/05/26 12:44:24;;;;;;;7.82;1.83;;;23.20;49.60;;;;;;5022274;28;20042;-74
2022/05/26 12:47:16;;;;;;;5.85;1.70;;;23.10;50.00;;;;;;5029783;28;20046;-72
2022/05/26 12:49:52;;;;;;;6.75;1.95;;;23.20;49.80;;;;;;4983309;28;20043;-72
2022/05/26 12:52:24;;;;;;;6.43;1.58;;;23.40;49.40;;;;;;5003795;28;20457;-70
2022/05/26 12:55:12;;;;;;;7.68;1.60;;;23.00;49.40;;;;;;4998407;28;20124;-71
2022/05/26 12:57:42;;;;;;;7.25;2.03;;;22.90;50.40;;;;;;4992834;28;20069;-71
2022/05/26 13:00:28;;;;;;;8.73;1.90;;;22.90;50.70;;;;;;5001403;28;20044;-71
2022/05/26 13:03:06;;;;;;;6.15;1.70;;;22.90;50.10;;;;;;4999320;28;20030;-72
2022/05/26 13:05:37;;;;;;;7.18;2.05;;;23.10;50.10;;;;;;4992938;28;20034;-72
2022/05/26 13:08:05;;;;;;;9.77;1.88;;;22.60;52.40;;;;;;5001566;28;20045;-71
2022/05/26 13:10:37;;;;;;;7.68;2.10;;;22.50;52.10;;;;;;4994093;28;20041;-70
2022/05/26 13:13:22;;;;;;;6.55;1.60;;;22.40;52.40;;;;;;4994821;28;20366;-71
2022/05/26 13:15:48;;;;;;;11.80;2.60;;;22.80;51.50;;;;;;5002513;28;20085;-72
2022/05/26 13:18:24;;;;;;;11.10;2.40;;;23.00;51.20;;;;;;4983048;28;20144;-71
2022/05/26 13:20:50;;;;;;;7.50;1.90;;;22.60;51.80;;;;;;4976331;28;20379;-70
2022/05/26 13:23:30;;;;;;;9.13;1.98;;;21.90;54.00;;;;;;4975016;28;20030;-74
2022/05/26 13:25:58;;;;;;;9.73;1.90;;;22.10;54.20;;;;;;4978412;28;20040;-73
2022/05/26 13:28:31;;;;;;;5.72;1.80;;;22.10;53.40;;;;;;4971393;28;20050;-72
2022/05/26 13:33:42;;;;;;;;;;;22.80;52.60;;;;;;4979195;28;20565;-69
2022/05/26 13:36:19;;;;;;;5.88;1.80;;;22.90;51.60;;;;;;4976900;28;20297;-70
2022/05/26 13:38:49;;;;;;;9.57;2.38;;;22.90;52.90;;;;;;4988994;28;20456;-71
2022/05/26 13:41:26;;;;;;;10.00;2.30;;;22.60;53.40;;;;;;4986161;28;20091;-72
2022/05/26 13:43:53;;;;;;;8.25;2.30;;;22.30;53.90;;;;;;4976874;28;20050;-72
2022/05/26 13:46:32;;;;;;;9.35;2.30;;;22.60;53.20;;;;;;4981984;28;20129;-73
2022/05/26 13:49:22;;;;;;;8.85;2.08;;;22.40;53.40;;;;;;4980883;28;20068;-71
2022/05/26 13:51:51;;;;;;;9.48;2.38;;;22.30;53.30;;;;;;4977673;28;20797;-69